sensor_id;sensor_type;location;lat;lon;timestamp;temperature;humidity
2913;DHT22;1466;48.778;9.166;2023-07-13T00:02:22;23.70;79.40
2913;DHT22;1466;48.778;9.166;2023-07-13T00:04:48;23.70;79.20
2913;DHT22;1466;48.778;9.166;2023-07-13T00:07:14;23.70;79.20
2913;DHT22;1466;48.778;9.166;2023-07-13T00:09:40;23.70;79.20
2913;DHT22;1466;48.778;9.166;2023-07-13T00:12:27;23.70;79.40
2913;DHT22;1466;48.778;9.166;2023-07-13T00:14:56;23.70;79.00
2913;DHT22;1466;48.778;9.166;2023-07-13T00:17:23;23.60;79.20
2913;DHT22;1466;48.778;9.166;2023-07-13T00:19:48;23.60;78.90
2913;DHT22;1466;48.778;9.166;2023-07-13T00:22:14;23.60;78.60
2913;DHT22;1466;48.778;9.166;2023-07-13T00:24:39;23.50;78.70
2913;DHT22;1466;48.778;9.166;2023-07-13T00:27:10;23.50;78.80
2913;DHT22;1466;48.778;9.166;2023-07-13T00:29:36;23.50;78.40
2913;DHT22;1466;48.778;9.166;2023-07-13T00:32:06;23.40;78.70
2913;DHT22;1466;48.778;9.166;2023-07-13T00:34:33;23.40;78.80
2913;DHT22;1466;48.778;9.166;2023-07-13T00:36:59;23.40;78.60
2913;DHT22;1466;48.778;9.166;2023-07-13T00:39:25;23.30;78.70
2913;DHT22;1466;48.778;9.166;2023-07-13T00:41:50;23.20;78.40
2913;DHT22;1466;48.778;9.166;2023-07-13T00:44:18;23.20;79.40
2913;DHT22;1466;48.778;9.166;2023-07-13T00:46:45;23.20;78.80
2913;DHT22;1466;48.778;9.166;2023-07-13T00:49:15;23.10;78.80
2913;DHT22;1466;48.778;9.166;2023-07-13T00:51:50;23.10;79.00
2913;DHT22;1466;48.778;9.166;2023-07-13T00:54:32;23.00;79.10
2913;DHT22;1466;48.778;9.166;2023-07-13T00:57:01;23.00;79.20
2913;DHT22;1466;48.778;9.166;2023-07-13T00:59:28;23.00;78.80
2913;DHT22;1466;48.778;9.166;2023-07-13T01:01:54;23.00;78.80
2913;DHT22;1466;48.778;9.166;2023-07-13T01:04:20;23.10;78.90
2913;DHT22;1466;48.778;9.166;2023-07-13T01:06:46;23.20;78.70
2913;DHT22;1466;48.778;9.166;2023-07-13T01:09:14;23.30;77.90
2913;DHT22;1466;48.778;9.166;2023-07-13T01:11:41;23.20;77.40
2913;DHT22;1466;48.778;9.166;2023-07-13T01:14:08;23.20;78.20
2913;DHT22;1466;48.778;9.166;2023-07-13T01:16:38;23.10;77.30
2913;DHT22;1466;48.778;9.166;2023-07-13T01:22:06;23.20;77.30
2913;DHT22;1466;48.778;9.166;2023-07-13T01:24:35;23.10;77.00
2913;DHT22;1466;48.778;9.166;2023-07-13T01:27:02;23.10;77.00
2913;DHT22;1466;48.778;9.166;2023-07-13T01:29:28;23.20;77.00
2913;DHT22;1466;48.778;9.166;2023-07-13T01:31:53;23.10;76.70
2913;DHT22;1466;48.778;9.166;2023-07-13T01:34:19;23.10;76.50
2913;DHT22;1466;48.778;9.166;2023-07-13T01:36:47;23.10;76.50
2913;DHT22;1466;48.778;9.166;2023-07-13T01:39:13;23.10;76.40
2913;DHT22;1466;48.778;9.166;2023-07-13T01:41:40;23.10;76.50
2913;DHT22;1466;48.778;9.166;2023-07-13T01:44:05;23.10;76.40
2913;DHT22;1466;48.778;9.166;2023-07-13T01:46:31;23.10;76.40
2913;DHT22;1466;48.778;9.166;2023-07-13T01:48:56;23.00;76.40
2913;DHT22;1466;48.778;9.166;2023-07-13T01:51:22;23.00;76.60
2913;DHT22;1466;48.778;9.166;2023-07-13T01:53:48;23.00;77.10
2913;DHT22;1466;48.778;9.166;2023-07-13T01:56:13;22.90;77.70
2913;DHT22;1466;48.778;9.166;2023-07-13T01:58:39;23.00;78.10
2913;DHT22;1466;48.778;9.166;2023-07-13T02:01:04;23.00;77.80
2913;DHT22;1466;48.778;9.166;2023-07-13T02:03:30;23.00;77.50
2913;DHT22;1466;48.778;9.166;2023-07-13T02:05:56;23.00;77.20
2913;DHT22;1466;48.778;9.166;2023-07-13T02:08:21;22.90;77.00
2913;DHT22;1466;48.778;9.166;2023-07-13T02:10:47;22.90;77.10
2913;DHT22;1466;48.778;9.166;2023-07-13T02:13:13;22.90;77.20
2913;DHT22;1466;48.778;9.166;2023-07-13T02:15:39;22.80;77.10
2913;DHT22;1466;48.778;9.166;2023-07-13T02:18:06;22.70;77.40
2913;DHT22;1466;48.778;9.166;2023-07-13T02:20:31;22.70;77.60
2913;DHT22;1466;48.778;9.166;2023-07-13T02:22:58;22.70;77.90
2913;DHT22;1466;48.778;9.166;2023-07-13T02:25:24;22.70;78.20
2913;DHT22;1466;48.778;9.166;2023-07-13T02:27:52;22.70;79.20
2913;DHT22;1466;48.778;9.166;2023-07-13T02:30:18;22.70;78.60
2913;DHT22;1466;48.778;9.166;2023-07-13T02:32:46;22.60;78.90
2913;DHT22;1466;48.778;9.166;2023-07-13T02:35:12;22.60;79.20
2913;DHT22;1466;48.778;9.166;2023-07-13T02:37:37;22.50;79.60
2913;DHT22;1466;48.778;9.166;2023-07-13T02:40:03;22.40;79.80
2913;DHT22;1466;48.778;9.166;2023-07-13T02:42:34;22.40;80.10
2913;DHT22;1466;48.778;9.166;2023-07-13T02:45:00;22.30;80.50
2913;DHT22;1466;48.778;9.166;2023-07-13T02:47:26;22.20;80.80
2913;DHT22;1466;48.778;9.166;2023-07-13T02:49:52;22.20;81.00
2913;DHT22;1466;48.778;9.166;2023-07-13T02:52:17;22.20;81.20
2913;DHT22;1466;48.778;9.166;2023-07-13T02:54:43;22.10;81.60
2913;DHT22;1466;48.778;9.166;2023-07-13T02:57:09;22.10;81.70
2913;DHT22;1466;48.778;9.166;2023-07-13T02:59:35;22.10;81.80
2913;DHT22;1466;48.778;9.166;2023-07-13T03:02:03;22.10;81.80
2913;DHT22;1466;48.778;9.166;2023-07-13T03:04:29;22.10;81.80
2913;DHT22;1466;48.778;9.166;2023-07-13T03:06:54;22.00;81.80
2913;DHT22;1466;48.778;9.166;2023-07-13T03:09:23;22.00;81.80
2913;DHT22;1466;48.778;9.166;2023-07-13T03:11:48;22.00;81.90
2913;DHT22;1466;48.778;9.166;2023-07-13T03:14:14;22.10;82.20
2913;DHT22;1466;48.778;9.166;2023-07-13T03:16:40;22.20;82.10
2913;DHT22;1466;48.778;9.166;2023-07-13T03:19:05;22.20;82.10
2913;DHT22;1466;48.778;9.166;2023-07-13T03:21:31;22.30;82.10
2913;DHT22;1466;48.778;9.166;2023-07-13T03:23:57;22.30;82.00
2913;DHT22;1466;48.778;9.166;2023-07-13T03:26:22;22.30;81.60
2913;DHT22;1466;48.778;9.166;2023-07-13T03:28:48;22.20;81.20
2913;DHT22;1466;48.778;9.166;2023-07-13T03:31:22;22.10;81.30
2913;DHT22;1466;48.778;9.166;2023-07-13T03:33:48;22.00;81.00
2913;DHT22;1466;48.778;9.166;2023-07-13T03:36:22;21.90;81.20
2913;DHT22;1466;48.778;9.166;2023-07-13T03:38:49;21.80;81.30
2913;DHT22;1466;48.778;9.166;2023-07-13T03:41:16;21.80;81.40
2913;DHT22;1466;48.778;9.166;2023-07-13T03:43:42;21.90;81.30
2913;DHT22;1466;48.778;9.166;2023-07-13T03:46:08;22.00;81.30
2913;DHT22;1466;48.778;9.166;2023-07-13T03:48:33;22.20;80.90
2913;DHT22;1466;48.778;9.166;2023-07-13T03:50:59;22.10;80.60
2913;DHT22;1466;48.778;9.166;2023-07-13T03:53:25;22.20;80.60
2913;DHT22;1466;48.778;9.166;2023-07-13T03:55:51;22.30;80.30
2913;DHT22;1466;48.778;9.166;2023-07-13T03:58:26;22.30;79.80
2913;DHT22;1466;48.778;9.166;2023-07-13T04:00:55;22.30;79.50
2913;DHT22;1466;48.778;9.166;2023-07-13T04:03:23;22.20;79.50
2913;DHT22;1466;48.778;9.166;2023-07-13T04:05:49;22.20;79.70
2913;DHT22;1466;48.778;9.166;2023-07-13T04:08:15;22.10;79.60
2913;DHT22;1466;48.778;9.166;2023-07-13T04:10:41;22.10;79.70
2913;DHT22;1466;48.778;9.166;2023-07-13T04:13:06;22.10;79.80
2913;DHT22;1466;48.778;9.166;2023-07-13T04:15:32;22.10;79.60
2913;DHT22;1466;48.778;9.166;2023-07-13T04:17:58;22.20;79.40
2913;DHT22;1466;48.778;9.166;2023-07-13T04:20:25;22.20;79.40
2913;DHT22;1466;48.778;9.166;2023-07-13T04:22:51;22.30;79.30
2913;DHT22;1466;48.778;9.166;2023-07-13T04:25:18;22.30;78.90
2913;DHT22;1466;48.778;9.166;2023-07-13T04:27:44;22.40;78.90
2913;DHT22;1466;48.778;9.166;2023-07-13T04:30:10;22.40;78.70
2913;DHT22;1466;48.778;9.166;2023-07-13T04:32:35;22.40;78.40
2913;DHT22;1466;48.778;9.166;2023-07-13T04:35:01;22.50;78.20
2913;DHT22;1466;48.778;9.166;2023-07-13T04:37:26;22.40;78.00
2913;DHT22;1466;48.778;9.166;2023-07-13T04:39:52;22.40;77.80
2913;DHT22;1466;48.778;9.166;2023-07-13T04:42:18;22.30;77.50
2913;DHT22;1466;48.778;9.166;2023-07-13T04:44:50;22.20;77.60
2913;DHT22;1466;48.778;9.166;2023-07-13T04:47:17;22.30;77.90
2913;DHT22;1466;48.778;9.166;2023-07-13T04:49:43;22.30;78.00
2913;DHT22;1466;48.778;9.166;2023-07-13T04:52:08;22.30;78.00
2913;DHT22;1466;48.778;9.166;2023-07-13T04:54:34;22.30;77.80
2913;DHT22;1466;48.778;9.166;2023-07-13T04:57:00;22.20;77.80
2913;DHT22;1466;48.778;9.166;2023-07-13T04:59:26;22.00;77.90
2913;DHT22;1466;48.778;9.166;2023-07-13T05:01:53;22.00;78.20
2913;DHT22;1466;48.778;9.166;2023-07-13T05:04:18;22.00;78.20
2913;DHT22;1466;48.778;9.166;2023-07-13T05:06:44;21.90;78.30
2913;DHT22;1466;48.778;9.166;2023-07-13T05:09:09;22.10;78.40
2913;DHT22;1466;48.778;9.166;2023-07-13T05:11:35;22.20;78.20
2913;DHT22;1466;48.778;9.166;2023-07-13T05:14:01;22.20;78.00
2913;DHT22;1466;48.778;9.166;2023-07-13T05:16:29;22.00;77.90
2913;DHT22;1466;48.778;9.166;2023-07-13T05:18:56;22.10;78.00
2913;DHT22;1466;48.778;9.166;2023-07-13T05:21:21;22.10;78.10
2913;DHT22;1466;48.778;9.166;2023-07-13T05:23:47;22.20;78.20
2913;DHT22;1466;48.778;9.166;2023-07-13T05:26:13;22.30;78.30
2913;DHT22;1466;48.778;9.166;2023-07-13T05:28:39;22.30;78.30
2913;DHT22;1466;48.778;9.166;2023-07-13T05:31:06;22.30;78.10
2913;DHT22;1466;48.778;9.166;2023-07-13T05:33:32;22.30;78.00
2913;DHT22;1466;48.778;9.166;2023-07-13T05:35:58;22.40;78.20
2913;DHT22;1466;48.778;9.166;2023-07-13T05:38:25;22.30;78.20
2913;DHT22;1466;48.778;9.166;2023-07-13T05:40:54;22.30;78.10
2913;DHT22;1466;48.778;9.166;2023-07-13T05:43:21;22.30;78.20
2913;DHT22;1466;48.778;9.166;2023-07-13T05:45:47;22.20;77.30
2913;DHT22;1466;48.778;9.166;2023-07-13T05:48:12;22.20;77.70
2913;DHT22;1466;48.778;9.166;2023-07-13T05:50:38;22.30;77.90
2913;DHT22;1466;48.778;9.166;2023-07-13T05:53:04;22.30;77.60
2913;DHT22;1466;48.778;9.166;2023-07-13T05:55:30;22.30;77.80
2913;DHT22;1466;48.778;9.166;2023-07-13T05:57:56;22.30;78.00
2913;DHT22;1466;48.778;9.166;2023-07-13T06:00:24;22.30;77.60
2913;DHT22;1466;48.778;9.166;2023-07-13T06:02:49;22.30;77.80
2913;DHT22;1466;48.778;9.166;2023-07-13T06:05:15;22.20;77.50
2913;DHT22;1466;48.778;9.166;2023-07-13T06:07:44;22.30;77.30
2913;DHT22;1466;48.778;9.166;2023-07-13T06:10:12;22.30;77.10
2913;DHT22;1466;48.778;9.166;2023-07-13T06:12:37;22.40;77.00
2913;DHT22;1466;48.778;9.166;2023-07-13T06:15:03;22.50;76.50
2913;DHT22;1466;48.778;9.166;2023-07-13T06:17:29;22.60;76.30
2913;DHT22;1466;48.778;9.166;2023-07-13T06:19:55;22.50;76.00
2913;DHT22;1466;48.778;9.166;2023-07-13T06:22:20;22.70;76.10
2913;DHT22;1466;48.778;9.166;2023-07-13T06:24:46;22.80;75.80
2913;DHT22;1466;48.778;9.166;2023-07-13T06:27:12;22.90;75.30
2913;DHT22;1466;48.778;9.166;2023-07-13T06:29:37;22.90;74.80
2913;DHT22;1466;48.778;9.166;2023-07-13T06:32:03;22.80;74.60
2913;DHT22;1466;48.778;9.166;2023-07-13T06:34:29;22.70;74.50
2913;DHT22;1466;48.778;9.166;2023-07-13T06:36:54;22.70;74.80
2913;DHT22;1466;48.778;9.166;2023-07-13T06:39:20;22.70;75.00
2913;DHT22;1466;48.778;9.166;2023-07-13T06:41:45;22.70;75.10
2913;DHT22;1466;48.778;9.166;2023-07-13T06:44:11;22.70;75.40
2913;DHT22;1466;48.778;9.166;2023-07-13T06:46:37;22.70;75.40
2913;DHT22;1466;48.778;9.166;2023-07-13T06:49:03;22.80;74.50
2913;DHT22;1466;48.778;9.166;2023-07-13T06:51:28;22.90;74.60
2913;DHT22;1466;48.778;9.166;2023-07-13T06:53:54;23.00;74.40
2913;DHT22;1466;48.778;9.166;2023-07-13T06:56:21;23.10;73.90
2913;DHT22;1466;48.778;9.166;2023-07-13T06:58:47;23.10;73.20
2913;DHT22;1466;48.778;9.166;2023-07-13T07:01:12;23.10;72.30
2913;DHT22;1466;48.778;9.166;2023-07-13T07:03:38;23.20;72.20
2913;DHT22;1466;48.778;9.166;2023-07-13T07:06:18;23.40;71.90
2913;DHT22;1466;48.778;9.166;2023-07-13T07:08:44;23.40;71.50
2913;DHT22;1466;48.778;9.166;2023-07-13T07:11:13;23.40;71.60
2913;DHT22;1466;48.778;9.166;2023-07-13T07:13:39;23.50;71.80
2913;DHT22;1466;48.778;9.166;2023-07-13T07:16:04;23.40;70.60
2913;DHT22;1466;48.778;9.166;2023-07-13T07:18:30;23.20;69.80
2913;DHT22;1466;48.778;9.166;2023-07-13T07:20:56;23.10;70.30
2913;DHT22;1466;48.778;9.166;2023-07-13T07:23:22;23.10;71.30
2913;DHT22;1466;48.778;9.166;2023-07-13T07:25:48;23.00;71.40
2913;DHT22;1466;48.778;9.166;2023-07-13T07:28:15;23.20;71.70
2913;DHT22;1466;48.778;9.166;2023-07-13T07:30:44;23.30;71.60
2913;DHT22;1466;48.778;9.166;2023-07-13T07:33:09;23.40;71.20
2913;DHT22;1466;48.778;9.166;2023-07-13T07:35:35;23.40;71.00
2913;DHT22;1466;48.778;9.166;2023-07-13T07:38:00;23.30;71.10
2913;DHT22;1466;48.778;9.166;2023-07-13T07:40:26;23.30;70.20
2913;DHT22;1466;48.778;9.166;2023-07-13T07:42:52;23.50;69.90
2913;DHT22;1466;48.778;9.166;2023-07-13T07:45:19;23.50;70.30
2913;DHT22;1466;48.778;9.166;2023-07-13T07:47:45;23.50;69.50
2913;DHT22;1466;48.778;9.166;2023-07-13T07:50:10;23.60;69.00
2913;DHT22;1466;48.778;9.166;2023-07-13T07:52:36;23.70;69.10
2913;DHT22;1466;48.778;9.166;2023-07-13T07:55:04;23.60;67.80
2913;DHT22;1466;48.778;9.166;2023-07-13T07:57:30;23.50;67.90
2913;DHT22;1466;48.778;9.166;2023-07-13T07:59:55;23.40;67.40
2913;DHT22;1466;48.778;9.166;2023-07-13T08:02:21;23.40;66.90
2913;DHT22;1466;48.778;9.166;2023-07-13T08:04:47;23.40;66.80
2913;DHT22;1466;48.778;9.166;2023-07-13T08:07:12;23.40;67.00
2913;DHT22;1466;48.778;9.166;2023-07-13T08:09:38;23.60;68.00
2913;DHT22;1466;48.778;9.166;2023-07-13T08:12:04;23.50;65.80
2913;DHT22;1466;48.778;9.166;2023-07-13T08:14:30;23.40;66.10
2913;DHT22;1466;48.778;9.166;2023-07-13T08:16:55;23.20;66.80
2913;DHT22;1466;48.778;9.166;2023-07-13T08:19:21;23.20;67.20
2913;DHT22;1466;48.778;9.166;2023-07-13T08:21:47;23.20;67.00
2913;DHT22;1466;48.778;9.166;2023-07-13T08:24:14;23.30;66.70
2913;DHT22;1466;48.778;9.166;2023-07-13T08:26:39;23.40;67.00
2913;DHT22;1466;48.778;9.166;2023-07-13T08:29:05;23.30;67.20
2913;DHT22;1466;48.778;9.166;2023-07-13T08:31:31;23.50;67.60
2913;DHT22;1466;48.778;9.166;2023-07-13T08:33:57;23.70;67.60
2913;DHT22;1466;48.778;9.166;2023-07-13T08:36:22;24.00;67.20
2913;DHT22;1466;48.778;9.166;2023-07-13T08:38:48;24.20;66.40
2913;DHT22;1466;48.778;9.166;2023-07-13T08:41:16;24.10;66.60
2913;DHT22;1466;48.778;9.166;2023-07-13T08:43:46;24.00;67.10
2913;DHT22;1466;48.778;9.166;2023-07-13T08:46:34;24.00;67.80
2913;DHT22;1466;48.778;9.166;2023-07-13T08:49:21;24.00;68.00
2913;DHT22;1466;48.778;9.166;2023-07-13T08:51:53;24.30;68.00
2913;DHT22;1466;48.778;9.166;2023-07-13T08:54:34;24.30;67.30
2913;DHT22;1466;48.778;9.166;2023-07-13T08:57:09;24.20;67.80
2913;DHT22;1466;48.778;9.166;2023-07-13T08:59:37;24.20;68.10
2913;DHT22;1466;48.778;9.166;2023-07-13T09:10:12;24.50;67.50
2913;DHT22;1466;48.778;9.166;2023-07-13T09:15:36;24.70;67.20
2913;DHT22;1466;48.778;9.166;2023-07-13T09:21:32;24.90;66.80
2913;DHT22;1466;48.778;9.166;2023-07-13T09:26:47;25.30;65.70
2913;DHT22;1466;48.778;9.166;2023-07-13T09:29:27;25.50;65.50
2913;DHT22;1466;48.778;9.166;2023-07-13T09:31:56;25.60;65.40
2913;DHT22;1466;48.778;9.166;2023-07-13T09:34:25;25.50;64.80
2913;DHT22;1466;48.778;9.166;2023-07-13T09:36:50;25.40;64.90
2913;DHT22;1466;48.778;9.166;2023-07-13T09:39:28;25.30;65.20
2913;DHT22;1466;48.778;9.166;2023-07-13T09:44:30;25.10;64.70
2913;DHT22;1466;48.778;9.166;2023-07-13T09:46:57;25.80;63.50
2913;DHT22;1466;48.778;9.166;2023-07-13T09:49:33;26.90;61.90
2913;DHT22;1466;48.778;9.166;2023-07-13T09:54:27;27.60;58.60
2913;DHT22;1466;48.778;9.166;2023-07-13T09:56:57;28.10;58.40
2913;DHT22;1466;48.778;9.166;2023-07-13T09:59:50;28.10;58.40
2913;DHT22;1466;48.778;9.166;2023-07-13T10:07:31;28.00;57.60
2913;DHT22;1466;48.778;9.166;2023-07-13T10:09:59;27.60;58.60
2913;DHT22;1466;48.778;9.166;2023-07-13T10:12:30;27.40;58.90
2913;DHT22;1466;48.778;9.166;2023-07-13T10:15:02;27.50;58.80
2913;DHT22;1466;48.778;9.166;2023-07-13T10:17:32;27.40;59.00
2913;DHT22;1466;48.778;9.166;2023-07-13T10:20:03;27.40;59.00
2913;DHT22;1466;48.778;9.166;2023-07-13T10:25:22;27.50;58.70
2913;DHT22;1466;48.778;9.166;2023-07-13T10:27:54;27.50;58.90
2913;DHT22;1466;48.778;9.166;2023-07-13T10:30:28;27.60;59.00
2913;DHT22;1466;48.778;9.166;2023-07-13T10:32:58;27.80;59.10
2913;DHT22;1466;48.778;9.166;2023-07-13T10:35:27;27.90;58.70
2913;DHT22;1466;48.778;9.166;2023-07-13T10:41:08;27.70;57.80
2913;DHT22;1466;48.778;9.166;2023-07-13T10:43:21;27.70;58.00
2913;DHT22;1466;48.778;9.166;2023-07-13T10:45:49;27.70;57.90
2913;DHT22;1466;48.778;9.166;2023-07-13T10:48:17;27.70;57.80
2913;DHT22;1466;48.778;9.166;2023-07-13T10:50:46;27.60;57.80
2913;DHT22;1466;48.778;9.166;2023-07-13T10:53:42;27.70;57.80
2913;DHT22;1466;48.778;9.166;2023-07-13T10:58:38;27.50;57.40
2913;DHT22;1466;48.778;9.166;2023-07-13T11:01:18;27.40;57.60
2913;DHT22;1466;48.778;9.166;2023-07-13T11:03:49;27.30;57.50
2913;DHT22;1466;48.778;9.166;2023-07-13T11:06:39;27.40;57.70
2913;DHT22;1466;48.778;9.166;2023-07-13T11:12:06;27.40;57.80
2913;DHT22;1466;48.778;9.166;2023-07-13T11:14:43;27.40;57.90
2913;DHT22;1466;48.778;9.166;2023-07-13T11:19:53;27.20;57.70
2913;DHT22;1466;48.778;9.166;2023-07-13T11:22:24;27.30;57.90
2913;DHT22;1466;48.778;9.166;2023-07-13T11:27:38;27.10;58.50
2913;DHT22;1466;48.778;9.166;2023-07-13T11:32:51;27.30;58.80
2913;DHT22;1466;48.778;9.166;2023-07-13T11:35:28;27.50;58.50
2913;DHT22;1466;48.778;9.166;2023-07-13T11:37:54;27.70;58.20
2913;DHT22;1466;48.778;9.166;2023-07-13T11:40:22;27.90;58.00
2913;DHT22;1466;48.778;9.166;2023-07-13T11:42:52;27.70;57.10
2913;DHT22;1466;48.778;9.166;2023-07-13T11:45:21;27.60;57.30
2913;DHT22;1466;48.778;9.166;2023-07-13T11:47:49;27.30;57.40
2913;DHT22;1466;48.778;9.166;2023-07-13T11:50:24;27.10;58.00
2913;DHT22;1466;48.778;9.166;2023-07-13T11:52:51;27.00;58.30
2913;DHT22;1466;48.778;9.166;2023-07-13T11:55:20;26.90;58.50
2913;DHT22;1466;48.778;9.166;2023-07-13T11:58:09;27.00;58.10
2913;DHT22;1466;48.778;9.166;2023-07-13T12:00:35;27.20;58.10
2913;DHT22;1466;48.778;9.166;2023-07-13T12:03:04;27.20;58.00
2913;DHT22;1466;48.778;9.166;2023-07-13T12:05:30;27.30;57.70
2913;DHT22;1466;48.778;9.166;2023-07-13T12:07:57;27.40;57.80
2913;DHT22;1466;48.778;9.166;2023-07-13T12:10:28;27.70;57.60
2913;DHT22;1466;48.778;9.166;2023-07-13T12:12:58;27.80;57.70
2913;DHT22;1466;48.778;9.166;2023-07-13T12:15:38;27.80;57.50
2913;DHT22;1466;48.778;9.166;2023-07-13T12:18:17;27.60;56.90
2913;DHT22;1466;48.778;9.166;2023-07-13T12:20:45;27.70;56.80
2913;DHT22;1466;48.778;9.166;2023-07-13T12:23:29;27.80;57.10
2913;DHT22;1466;48.778;9.166;2023-07-13T12:25:56;27.80;56.30
2913;DHT22;1466;48.778;9.166;2023-07-13T12:31:01;27.70;55.70
2913;DHT22;1466;48.778;9.166;2023-07-13T12:33:29;27.40;55.70
2913;DHT22;1466;48.778;9.166;2023-07-13T12:35:55;27.10;56.30
2913;DHT22;1466;48.778;9.166;2023-07-13T12:38:21;26.90;56.90
2913;DHT22;1466;48.778;9.166;2023-07-13T12:40:49;26.70;56.90
2913;DHT22;1466;48.778;9.166;2023-07-13T12:43:16;26.60;56.90
2913;DHT22;1466;48.778;9.166;2023-07-13T12:45:58;26.80;57.20
2913;DHT22;1466;48.778;9.166;2023-07-13T12:48:24;27.10;56.80
2913;DHT22;1466;48.778;9.166;2023-07-13T12:50:50;27.10;56.60
2913;DHT22;1466;48.778;9.166;2023-07-13T12:53:20;27.10;56.80
2913;DHT22;1466;48.778;9.166;2023-07-13T12:55:53;27.20;56.30
2913;DHT22;1466;48.778;9.166;2023-07-13T12:58:36;27.10;56.10
2913;DHT22;1466;48.778;9.166;2023-07-13T13:01:13;27.10;56.40
2913;DHT22;1466;48.778;9.166;2023-07-13T13:06:18;27.20;56.40
2913;DHT22;1466;48.778;9.166;2023-07-13T13:08:47;27.30;56.60
2913;DHT22;1466;48.778;9.166;2023-07-13T13:11:14;27.20;55.90
2913;DHT22;1466;48.778;9.166;2023-07-13T13:13:45;27.20;55.80
2913;DHT22;1466;48.778;9.166;2023-07-13T13:16:35;27.00;56.20
2913;DHT22;1466;48.778;9.166;2023-07-13T13:19:26;27.10;55.80
2913;DHT22;1466;48.778;9.166;2023-07-13T13:21:54;27.00;56.00
2913;DHT22;1466;48.778;9.166;2023-07-13T13:24:23;27.10;56.20
2913;DHT22;1466;48.778;9.166;2023-07-13T13:26:51;27.20;55.70
2913;DHT22;1466;48.778;9.166;2023-07-13T13:29:21;27.30;55.30
2913;DHT22;1466;48.778;9.166;2023-07-13T13:31:47;27.30;55.20
2913;DHT22;1466;48.778;9.166;2023-07-13T13:34:15;27.40;55.40
2913;DHT22;1466;48.778;9.166;2023-07-13T13:36:42;27.50;55.30
2913;DHT22;1466;48.778;9.166;2023-07-13T13:41:45;27.50;55.10
2913;DHT22;1466;48.778;9.166;2023-07-13T13:44:12;27.40;55.20
2913;DHT22;1466;48.778;9.166;2023-07-13T13:46:38;27.40;55.00
2913;DHT22;1466;48.778;9.166;2023-07-13T13:49:04;27.40;55.00
2913;DHT22;1466;48.778;9.166;2023-07-13T13:51:30;27.50;54.30
2913;DHT22;1466;48.778;9.166;2023-07-13T13:53:58;27.60;54.60
2913;DHT22;1466;48.778;9.166;2023-07-13T13:56:23;27.50;54.60
2913;DHT22;1466;48.778;9.166;2023-07-13T13:58:49;27.50;54.70
2913;DHT22;1466;48.778;9.166;2023-07-13T14:01:23;27.40;54.50
2913;DHT22;1466;48.778;9.166;2023-07-13T14:03:50;27.10;54.60
2913;DHT22;1466;48.778;9.166;2023-07-13T14:06:19;27.20;55.30
2913;DHT22;1466;48.778;9.166;2023-07-13T14:08:45;27.30;55.40
2913;DHT22;1466;48.778;9.166;2023-07-13T14:11:15;27.60;55.30
2913;DHT22;1466;48.778;9.166;2023-07-13T14:13:45;27.50;54.50
2913;DHT22;1466;48.778;9.166;2023-07-13T14:16:17;27.50;54.30
2913;DHT22;1466;48.778;9.166;2023-07-13T14:18:44;27.50;54.60
2913;DHT22;1466;48.778;9.166;2023-07-13T14:21:21;27.40;54.90
2913;DHT22;1466;48.778;9.166;2023-07-13T14:23:47;27.40;55.30
2913;DHT22;1466;48.778;9.166;2023-07-13T14:26:26;27.40;55.50
2913;DHT22;1466;48.778;9.166;2023-07-13T14:28:56;27.30;55.30
2913;DHT22;1466;48.778;9.166;2023-07-13T14:31:26;27.40;55.20
2913;DHT22;1466;48.778;9.166;2023-07-13T14:33:54;27.40;54.50
2913;DHT22;1466;48.778;9.166;2023-07-13T14:36:37;27.40;54.30
2913;DHT22;1466;48.778;9.166;2023-07-13T14:39:32;27.50;54.20
2913;DHT22;1466;48.778;9.166;2023-07-13T14:41:58;27.60;54.50
2913;DHT22;1466;48.778;9.166;2023-07-13T14:44:28;27.70;54.60
2913;DHT22;1466;48.778;9.166;2023-07-13T14:46:55;27.70;54.50
2913;DHT22;1466;48.778;9.166;2023-07-13T14:49:32;27.60;54.60
2913;DHT22;1466;48.778;9.166;2023-07-13T14:52:02;27.70;54.90
2913;DHT22;1466;48.778;9.166;2023-07-13T14:54:29;27.70;54.70
2913;DHT22;1466;48.778;9.166;2023-07-13T14:56:55;27.80;54.50
2913;DHT22;1466;48.778;9.166;2023-07-13T14:59:20;27.70;54.60
2913;DHT22;1466;48.778;9.166;2023-07-13T15:01:49;27.40;54.80
2913;DHT22;1466;48.778;9.166;2023-07-13T15:04:18;27.40;55.20
2913;DHT22;1466;48.778;9.166;2023-07-13T15:06:57;27.30;55.20
2913;DHT22;1466;48.778;9.166;2023-07-13T15:12:26;27.20;55.70
2913;DHT22;1466;48.778;9.166;2023-07-13T15:15:00;27.30;55.80
2913;DHT22;1466;48.778;9.166;2023-07-13T15:17:55;27.30;55.60
2913;DHT22;1466;48.778;9.166;2023-07-13T15:20:32;27.40;55.50
2913;DHT22;1466;48.778;9.166;2023-07-13T15:23:14;27.40;55.10
2913;DHT22;1466;48.778;9.166;2023-07-13T15:25:41;27.40;55.20
2913;DHT22;1466;48.778;9.166;2023-07-13T15:28:10;27.50;55.30
2913;DHT22;1466;48.778;9.166;2023-07-13T15:30:48;27.40;55.10
2913;DHT22;1466;48.778;9.166;2023-07-13T15:33:29;27.40;55.10
2913;DHT22;1466;48.778;9.166;2023-07-13T15:35:56;27.40;55.40
2913;DHT22;1466;48.778;9.166;2023-07-13T15:38:31;27.40;55.60
2913;DHT22;1466;48.778;9.166;2023-07-13T15:40:59;27.30;55.40
2913;DHT22;1466;48.778;9.166;2023-07-13T15:43:55;27.20;55.40
2913;DHT22;1466;48.778;9.166;2023-07-13T15:46:42;27.40;55.30
2913;DHT22;1466;48.778;9.166;2023-07-13T15:49:09;27.40;55.30
2913;DHT22;1466;48.778;9.166;2023-07-13T15:51:37;27.40;54.90
2913;DHT22;1466;48.778;9.166;2023-07-13T15:54:15;27.30;54.80
2913;DHT22;1466;48.778;9.166;2023-07-13T15:56:41;27.40;54.90
2913;DHT22;1466;48.778;9.166;2023-07-13T15:59:11;27.40;54.80
2913;DHT22;1466;48.778;9.166;2023-07-13T16:01:42;27.30;54.90
2913;DHT22;1466;48.778;9.166;2023-07-13T16:04:12;27.30;55.20
2913;DHT22;1466;48.778;9.166;2023-07-13T16:06:41;27.30;55.30
2913;DHT22;1466;48.778;9.166;2023-07-13T16:09:12;27.30;55.40
2913;DHT22;1466;48.778;9.166;2023-07-13T16:11:41;27.40;55.20
2913;DHT22;1466;48.778;9.166;2023-07-13T16:14:16;27.40;55.00
2913;DHT22;1466;48.778;9.166;2023-07-13T16:16:43;27.40;55.10
2913;DHT22;1466;48.778;9.166;2023-07-13T16:19:12;27.40;55.00
2913;DHT22;1466;48.778;9.166;2023-07-13T16:21:45;27.40;54.90
2913;DHT22;1466;48.778;9.166;2023-07-13T16:24:22;27.60;55.00
2913;DHT22;1466;48.778;9.166;2023-07-13T16:26:50;27.60;55.00
2913;DHT22;1466;48.778;9.166;2023-07-13T16:29:18;27.60;54.60
2913;DHT22;1466;48.778;9.166;2023-07-13T16:34:22;27.50;54.70
2913;DHT22;1466;48.778;9.166;2023-07-13T16:36:49;27.60;54.80
2913;DHT22;1466;48.778;9.166;2023-07-13T16:39:15;27.60;54.70
2913;DHT22;1466;48.778;9.166;2023-07-13T16:41:41;27.70;54.90
2913;DHT22;1466;48.778;9.166;2023-07-13T16:44:16;27.40;54.80
2913;DHT22;1466;48.778;9.166;2023-07-13T16:46:44;27.30;55.20
2913;DHT22;1466;48.778;9.166;2023-07-13T16:49:32;27.30;55.20
2913;DHT22;1466;48.778;9.166;2023-07-13T16:51:59;27.30;55.30
2913;DHT22;1466;48.778;9.166;2023-07-13T16:54:30;27.30;55.40
2913;DHT22;1466;48.778;9.166;2023-07-13T16:56:57;27.40;55.40
2913;DHT22;1466;48.778;9.166;2023-07-13T16:59:32;27.40;55.40
2913;DHT22;1466;48.778;9.166;2023-07-13T17:02:02;27.40;55.30
2913;DHT22;1466;48.778;9.166;2023-07-13T17:04:29;27.30;55.50
2913;DHT22;1466;48.778;9.166;2023-07-13T17:06:58;27.20;55.70
2913;DHT22;1466;48.778;9.166;2023-07-13T17:09:25;27.20;55.70
2913;DHT22;1466;48.778;9.166;2023-07-13T17:11:51;27.10;55.80
2913;DHT22;1466;48.778;9.166;2023-07-13T17:14:22;27.10;55.80
2913;DHT22;1466;48.778;9.166;2023-07-13T17:16:53;26.90;56.00